Time;durP1;ratioP1;P1;durP2;ratioP2;P2;SDS_P1;SDS_P2;PMS_P1;PMS_P2;Temp;Humidity;BMP_temperature;BMP_pressure;BME280_temperature;BME280_humidity;BME280_pressure;Samples;Min_cycle;Max_cycle;Signal;HPM_P1;HPM_P2
2022/01/07 00:00:05;;;;;;;8.02;3.12;;;3.50;71.90;;;;;;2339496;53;20963;-73
2022/01/07 00:02:31;;;;;;;7.75;3.00;;;3.50;71.90;;;;;;2366955;53;20948;-73
2022/01/07 00:04:57;;;;;;;5.30;2.08;;;3.50;71.90;;;;;;2340184;53;21003;-73
2022/01/07 00:07:23;;;;;;;3.55;1.75;;;3.50;72.00;;;;;;2384072;52;21009;-73
2022/01/07 00:09:50;;;;;;;6.32;1.73;;;3.50;72.00;;;;;;2330985;53;20923;-73
2022/01/07 00:12:19;;;;;;;4.47;1.65;;;3.50;72.00;;;;;;2423150;53;20958;-73
2022/01/07 00:14:46;;;;;;;6.53;1.62;;;3.50;71.90;;;;;;2342525;53;21381;-73
2022/01/07 00:17:12;;;;;;;5.28;1.83;;;3.50;71.80;;;;;;2382149;53;21477;-74
2022/01/07 00:19:39;;;;;;;4.82;1.77;;;3.50;71.90;;;;;;2580875;53;20991;-73
2022/01/07 00:22:05;;;;;;;5.43;2.12;;;3.50;72.00;;;;;;2341413;53;21011;-73
2022/01/07 00:24:32;;;;;;;6.72;2.05;;;3.50;72.10;;;;;;2354522;53;21035;-73
2022/01/07 00:26:59;;;;;;;5.57;1.50;;;3.50;72.40;;;;;;2355493;53;21069;-73
2022/01/07 00:29:27;;;;;;;3.72;1.67;;;3.50;72.40;;;;;;2576994;52;21020;-73
2022/01/07 00:31:54;;;;;;;3.25;1.35;;;3.50;72.40;;;;;;2345754;53;20927;-73
2022/01/07 00:34:20;;;;;;;3.83;1.42;;;3.50;72.30;;;;;;2337198;53;20998;-73
2022/01/07 00:36:46;;;;;;;3.53;1.48;;;3.50;72.20;;;;;;2341000;53;21499;-73
2022/01/07 00:39:13;;;;;;;2.53;1.33;;;3.50;72.10;;;;;;2386648;52;21793;-73
2022/01/07 00:41:39;;;;;;;4.20;1.30;;;3.50;72.00;;;;;;2452567;53;20998;-73
2022/01/07 00:44:08;;;;;;;4.28;1.50;;;3.50;71.80;;;;;;2342020;53;20986;-73
2022/01/07 00:46:34;;;;;;;3.25;1.30;;;3.50;71.70;;;;;;2426399;53;20931;-73
2022/01/07 00:49:01;;;;;;;3.08;1.35;;;3.50;71.50;;;;;;2350835;53;21462;-73
2022/01/07 00:51:28;;;;;;;5.03;1.48;;;3.50;71.50;;;;;;2340280;53;20991;-74
2022/01/07 00:53:54;;;;;;;3.97;1.75;;;3.50;71.60;;;;;;2350960;53;20921;-73
2022/01/07 00:56:20;;;;;;;5.47;2.12;;;3.50;71.60;;;;;;2354531;53;21040;-73
2022/01/07 00:58:46;;;;;;;6.75;1.80;;;3.50;71.70;;;;;;2385460;52;21388;-74
2022/01/07 01:01:13;;;;;;;5.50;2.20;;;3.50;71.80;;;;;;2345020;53;21062;-73
2022/01/07 01:03:39;;;;;;;6.62;2.42;;;3.50;71.80;;;;;;2352043;53;20954;-73
2022/01/07 01:06:05;;;;;;;7.45;3.15;;;3.50;71.90;;;;;;2342705;53;21038;-73
2022/01/07 01:08:32;;;;;;;7.40;3.30;;;3.50;72.10;;;;;;2339831;53;21028;-73
2022/01/07 01:10:58;;;;;;;12.88;4.10;;;3.50;72.40;;;;;;2341976;53;21413;-73
2022/01/07 01:13:24;;;;;;;10.50;3.87;;;3.50;72.80;;;;;;2343142;53;20938;-73
2022/01/07 01:15:50;;;;;;;8.20;4.32;;;3.50;73.10;;;;;;2328561;54;23395;-73
2022/01/07 01:18:16;;;;;;;6.80;3.33;;;3.60;73.30;;;;;;2434449;53;20923;-73
2022/01/07 01:20:43;;;;;;;11.55;4.10;;;3.60;73.30;;;;;;2343150;53;21661;-73
2022/01/07 01:23:12;;;;;;;9.57;4.10;;;3.60;73.30;;;;;;2343140;53;21007;-73
2022/01/07 01:25:38;;;;;;;11.23;4.60;;;3.60;73.20;;;;;;2346716;53;21471;-73
2022/01/07 01:28:05;;;;;;;9.70;4.70;;;3.70;73.40;;;;;;2342082;53;20998;-73
2022/01/07 01:30:33;;;;;;;10.35;4.72;;;3.70;73.40;;;;;;2580323;52;20932;-74
2022/01/07 01:32:59;;;;;;;10.88;4.80;;;3.70;73.30;;;;;;2343227;53;20995;-74
2022/01/07 01:35:25;;;;;;;8.23;4.15;;;3.80;73.40;;;;;;2390439;53;20977;-74
2022/01/07 01:37:52;;;;;;;9.65;3.90;;;3.80;73.30;;;;;;2335629;53;20943;-73
2022/01/07 01:40:19;;;;;;;10.77;4.80;;;3.80;73.20;;;;;;2417172;53;20939;-74
2022/01/07 01:42:47;;;;;;;10.32;4.75;;;3.80;73.20;;;;;;2338511;53;21280;-73
2022/01/07 01:45:15;;;;;;;11.57;5.03;;;3.90;73.30;;;;;;2393898;53;21070;-74
2022/01/07 01:47:42;;;;;;;11.82;5.25;;;3.90;73.40;;;;;;2351927;53;21795;-73
2022/01/07 01:50:09;;;;;;;15.63;5.68;;;3.90;73.40;;;;;;2342491;53;21043;-74
2022/01/07 01:52:35;;;;;;;11.15;5.50;;;3.90;73.50;;;;;;2346574;53;21034;-73
2022/01/07 01:55:03;;;;;;;14.18;6.37;;;4.00;73.60;;;;;;2342506;53;21008;-74
2022/01/07 01:57:33;;;;;;;11.35;6.00;;;4.00;73.60;;;;;;2363013;53;20966;-73
2022/01/07 01:59:59;;;;;;;10.98;5.95;;;4.00;73.60;;;;;;2365608;54;20976;-73
2022/01/07 02:02:25;;;;;;;11.02;5.40;;;4.00;73.50;;;;;;2346191;53;20930;-74
2022/01/07 02:04:51;;;;;;;12.63;5.28;;;4.10;73.50;;;;;;2351274;53;21715;-73
2022/01/07 02:07:18;;;;;;;8.38;4.30;;;4.10;73.40;;;;;;2342915;53;20952;-73
2022/01/07 02:09:44;;;;;;;10.25;5.50;;;4.10;73.10;;;;;;2356475;53;21491;-73
2022/01/07 02:12:11;;;;;;;9.27;4.70;;;4.10;72.80;;;;;;2350316;53;21097;-73
2022/01/07 02:14:52;;;;;;;8.75;4.00;;;4.10;73.30;;;;;;2351349;53;20959;-73
2022/01/07 02:17:19;;;;;;;11.75;4.00;;;4.10;72.40;;;;;;2345016;53;20963;-74
2022/01/07 02:19:46;;;;;;;12.65;3.55;;;4.10;72.20;;;;;;2350486;53;21338;-74
2022/01/07 02:22:13;;;;;;;7.95;3.90;;;4.00;71.90;;;;;;2533910;52;21692;-73
2022/01/07 02:24:39;;;;;;;9.73;4.18;;;4.00;71.80;;;;;;2350236;53;21502;-74
2022/01/07 02:27:08;;;;;;;7.28;3.37;;;4.00;71.60;;;;;;2347417;53;21444;-73
2022/01/07 02:29:36;;;;;;;7.57;3.05;;;4.00;71.50;;;;;;2351527;53;20933;-74
2022/01/07 02:32:02;;;;;;;6.45;2.83;;;3.90;71.40;;;;;;2350106;53;20965;-73
2022/01/07 02:34:28;;;;;;;9.25;3.28;;;3.90;71.20;;;;;;2346500;53;20939;-74
2022/01/07 02:36:55;;;;;;;7.70;3.37;;;3.90;71.20;;;;;;2321901;53;1297440;-73
2022/01/07 02:39:21;;;;;;;7.55;3.15;;;3.90;71.20;;;;;;2433337;52;21030;-73
2022/01/07 02:41:48;;;;;;;5.68;2.72;;;3.80;71.10;;;;;;2345631;53;21464;-73
2022/01/07 02:44:14;;;;;;;8.18;3.30;;;3.80;71.10;;;;;;2360738;53;21535;-73
2022/01/07 02:46:41;;;;;;;6.70;2.47;;;3.80;71.10;;;;;;2347257;53;21018;-73
2022/01/07 02:49:12;;;;;;;6.87;2.75;;;3.80;71.10;;;;;;2344508;53;20927;-73
2022/01/07 02:51:38;;;;;;;7.15;2.80;;;3.70;71.00;;;;;;2342525;53;20928;-74
2022/01/07 02:54:05;;;;;;;4.87;2.37;;;3.70;71.00;;;;;;2354768;53;20940;-73
2022/01/07 02:56:31;;;;;;;6.07;2.60;;;3.70;70.90;;;;;;2530006;52;20963;-73
2022/01/07 02:58:58;;;;;;;6.37;2.70;;;3.70;70.80;;;;;;2350439;53;21544;-73
2022/01/07 03:01:24;;;;;;;5.22;2.65;;;3.60;70.70;;;;;;2354111;53;20940;-73
2022/01/07 03:03:50;;;;;;;6.90;3.08;;;3.60;70.70;;;;;;2347140;53;20983;-73
2022/01/07 03:06:17;;;;;;;5.15;2.75;;;3.60;70.70;;;;;;2343455;53;20891;-73
2022/01/07 03:08:47;;;;;;;6.25;3.17;;;3.60;70.60;;;;;;2351949;53;21424;-73
2022/01/07 03:11:14;;;;;;;5.82;2.30;;;3.50;70.50;;;;;;2348332;53;20931;-73
2022/01/07 03:13:40;;;;;;;6.00;2.58;;;3.50;70.60;;;;;;2391796;53;20943;-73
2022/01/07 03:16:06;;;;;;;6.10;2.80;;;3.50;70.70;;;;;;2352403;53;20967;-73
2022/01/07 03:18:33;;;;;;;8.43;3.67;;;3.50;71.00;;;;;;2347240;53;20973;-73
2022/01/07 03:21:03;;;;;;;7.10;2.90;;;3.40;71.00;;;;;;2392658;53;21050;-74
2022/01/07 03:23:33;;;;;;;8.48;3.05;;;3.40;71.10;;;;;;2344356;53;21987;-73
2022/01/07 03:25:59;;;;;;;7.75;2.80;;;3.40;71.10;;;;;;2358600;53;21006;-73
2022/01/07 03:28:25;;;;;;;7.18;2.87;;;3.40;71.00;;;;;;2501107;52;20943;-73
2022/01/07 03:30:52;;;;;;;6.05;3.08;;;3.40;70.90;;;;;;2360978;53;20926;-73
2022/01/07 03:33:19;;;;;;;5.20;2.40;;;3.40;71.00;;;;;;2348432;53;21012;-74
2022/01/07 03:35:46;;;;;;;6.60;3.10;;;3.30;70.90;;;;;;2342570;53;20976;-73
2022/01/07 03:38:12;;;;;;;6.28;3.40;;;3.30;71.00;;;;;;2345119;53;20930;-73
2022/01/07 03:40:38;;;;;;;11.70;3.50;;;3.30;71.10;;;;;;2506484;53;20984;-73
2022/01/07 03:43:04;;;;;;;6.57;3.20;;;3.40;71.30;;;;;;2347282;53;20983;-73
2022/01/07 03:45:31;;;;;;;7.57;3.37;;;3.30;71.20;;;;;;2345773;53;20962;-73
2022/01/07 03:47:57;;;;;;;6.55;2.62;;;3.30;71.30;;;;;;2355081;53;20956;-73
2022/01/07 03:50:25;;;;;;;9.02;3.10;;;3.30;71.40;;;;;;2348591;53;20991;-73
2022/01/07 03:52:52;;;;;;;7.15;3.47;;;3.30;71.50;;;;;;2477032;52;21767;-73
2022/01/07 03:55:20;;;;;;;7.68;3.60;;;3.30;71.70;;;;;;2342162;53;21032;-73
2022/01/07 03:57:46;;;;;;;9.20;3.87;;;3.30;71.90;;;;;;2311624;53;21263;-73
2022/01/07 04:00:18;;;;;;;8.10;3.40;;;3.30;71.90;;;;;;2346309;53;20974;-73
2022/01/07 04:02:46;;;;;;;8.00;3.47;;;3.40;72.00;;;;;;2349214;53;21348;-73
2022/01/07 04:05:15;;;;;;;7.43;3.35;;;3.40;72.00;;;;;;2339317;53;20931;-73
2022/01/07 04:07:41;;;;;;;7.37;3.75;;;3.40;72.10;;;;;;2346359;53;21589;-73
2022/01/07 04:10:08;;;;;;;8.30;3.72;;;3.40;72.00;;;;;;2498422;52;21075;-73
2022/01/07 04:12:34;;;;;;;6.40;3.55;;;3.40;72.00;;;;;;2351613;53;20953;-73
2022/01/07 04:15:10;;;;;;;10.30;3.75;;;3.40;71.90;;;;;;2354468;53;21439;-73
2022/01/07 04:17:45;;;;;;;7.82;3.67;;;3.40;71.80;;;;;;2354551;53;20973;-73
2022/01/07 04:20:12;;;;;;;7.40;3.22;;;3.40;71.70;;;;;;2345294;53;20991;-73
2022/01/07 04:22:38;;;;;;;8.43;3.42;;;3.40;71.70;;;;;;2342144;53;20979;-73
2022/01/07 04:25:07;;;;;;;9.23;3.62;;;3.40;71.70;;;;;;2471625;53;21007;-73
2022/01/07 04:27:33;;;;;;;8.07;3.70;;;3.40;71.70;;;;;;2341182;53;20986;-73
2022/01/07 04:30:00;;;;;;;7.07;3.03;;;3.40;71.70;;;;;;2347332;53;21381;-73
2022/01/07 04:32:27;;;;;;;6.82;3.30;;;3.40;71.60;;;;;;2344877;53;20950;-73
2022/01/07 04:34:54;;;;;;;6.47;2.83;;;3.40;71.60;;;;;;2351122;53;20990;-74
2022/01/07 04:37:20;;;;;;;7.37;3.33;;;3.40;71.50;;;;;;2342165;53;21012;-73
2022/01/07 04:39:47;;;;;;;8.20;3.10;;;3.40;71.40;;;;;;2342130;53;20955;-73
2022/01/07 04:42:14;;;;;;;8.85;3.30;;;3.40;71.40;;;;;;2355876;53;21478;-73
2022/01/07 04:44:40;;;;;;;7.15;3.50;;;3.40;71.60;;;;;;2542936;53;20978;-73
2022/01/07 04:47:08;;;;;;;7.93;3.47;;;3.40;71.80;;;;;;2345470;53;20990;-73
2022/01/07 04:49:35;;;;;;;8.02;3.25;;;3.40;72.10;;;;;;2345406;53;20984;-73
2022/01/07 04:52:08;;;;;;;9.38;3.20;;;3.40;72.50;;;;;;2341569;53;21504;-73
2022/01/07 04:54:34;;;;;;;7.78;3.00;;;3.40;72.90;;;;;;2350707;53;21022;-73
2022/01/07 04:57:01;;;;;;;6.45;3.20;;;3.50;73.30;;;;;;2380710;52;20986;-73
2022/01/07 04:59:27;;;;;;;8.27;3.90;;;3.50;73.50;;;;;;2350150;53;20992;-72
2022/01/07 05:01:54;;;;;;;7.53;3.47;;;3.60;73.80;;;;;;2338891;53;21059;-73
2022/01/07 05:04:23;;;;;;;7.95;3.97;;;3.60;74.00;;;;;;2341985;53;20963;-73
2022/01/07 05:06:49;;;;;;;12.23;4.35;;;3.70;74.20;;;;;;2362570;53;21432;-73
2022/01/07 05:09:17;;;;;;;9.20;4.03;;;3.70;74.30;;;;;;2373187;53;21473;-73
2022/01/07 05:11:44;;;;;;;8.43;3.83;;;3.80;74.50;;;;;;2344001;53;21275;-74
2022/01/07 05:14:11;;;;;;;7.32;4.30;;;3.90;74.60;;;;;;2348277;53;20991;-73
2022/01/07 05:16:37;;;;;;;8.70;4.30;;;3.90;74.70;;;;;;2344528;53;21066;-74
2022/01/07 05:19:04;;;;;;;7.97;3.58;;;4.00;74.70;;;;;;2342194;53;21720;-74
2022/01/07 05:21:30;;;;;;;9.02;4.65;;;4.00;74.70;;;;;;2433596;53;21035;-74
2022/01/07 05:23:59;;;;;;;8.52;4.37;;;4.10;74.70;;;;;;2342751;53;21027;-74
2022/01/07 05:26:28;;;;;;;9.43;3.95;;;4.20;74.70;;;;;;2355241;53;20992;-74
2022/01/07 05:28:54;;;;;;;5.72;3.15;;;4.30;74.70;;;;;;2343225;53;21038;-74
2022/01/07 05:31:22;;;;;;;8.25;3.78;;;4.30;74.50;;;;;;2351325;53;21023;-73
2022/01/07 05:33:52;;;;;;;6.37;3.70;;;4.30;74.30;;;;;;2350560;53;21747;-73
2022/01/07 05:36:18;;;;;;;6.90;3.60;;;4.40;74.20;;;;;;2343793;53;20994;-73
2022/01/07 05:38:45;;;;;;;6.68;3.40;;;4.40;74.20;;;;;;2355660;53;21827;-73
2022/01/07 05:41:11;;;;;;;8.15;3.35;;;4.50;74.20;;;;;;2346984;53;20999;-74
2022/01/07 05:43:37;;;;;;;4.37;2.72;;;4.50;74.10;;;;;;2378793;53;20927;-74
2022/01/07 05:46:04;;;;;;;8.20;3.33;;;4.50;73.90;;;;;;2353831;52;20958;-73
2022/01/07 05:48:30;;;;;;;6.97;3.37;;;4.60;73.80;;;;;;2343527;53;21071;-73
2022/01/07 05:50:56;;;;;;;7.60;3.67;;;4.60;73.80;;;;;;2346511;53;21002;-74
2022/01/07 05:53:22;;;;;;;5.87;3.03;;;4.60;73.80;;;;;;2348084;53;21043;-73
2022/01/07 05:55:49;;;;;;;5.10;3.05;;;4.60;73.70;;;;;;2360420;53;21747;-73
2022/01/07 05:58:15;;;;;;;8.02;3.10;;;4.70;73.90;;;;;;2579698;52;21436;-73
2022/01/07 06:00:41;;;;;;;6.78;3.72;;;4.70;73.70;;;;;;2361162;53;21598;-73
2022/01/07 06:03:07;;;;;;;5.45;2.78;;;4.70;73.60;;;;;;2343080;53;20987;-73
2022/01/07 06:05:34;;;;;;;5.37;2.90;;;4.70;73.50;;;;;;2345103;52;21101;-73
2022/01/07 06:08:00;;;;;;;6.43;3.03;;;4.70;73.40;;;;;;2348954;53;21064;-74
2022/01/07 06:10:27;;;;;;;6.55;3.20;;;4.80;73.40;;;;;;2363843;54;20924;-74
2022/01/07 06:12:53;;;;;;;8.38;3.83;;;4.80;73.40;;;;;;2344894;53;20972;-74
2022/01/07 06:15:19;;;;;;;6.12;2.97;;;4.80;73.30;;;;;;2355789;53;20957;-74
2022/01/07 06:17:47;;;;;;;6.15;2.67;;;4.80;73.20;;;;;;2340915;53;21262;-73
2022/01/07 06:20:15;;;;;;;5.57;2.90;;;4.80;73.20;;;;;;2354065;53;20956;-73
2022/01/07 06:22:42;;;;;;;6.82;3.28;;;4.70;73.00;;;;;;2362612;53;21088;-73
2022/01/07 06:25:08;;;;;;;7.85;3.28;;;4.90;73.20;;;;;;2342900;53;21461;-74
2022/01/07 06:27:35;;;;;;;11.45;3.62;;;4.90;73.20;;;;;;2352594;52;21061;-74
2022/01/07 06:30:02;;;;;;;5.75;2.90;;;4.90;73.00;;;;;;2415170;52;20976;-74
2022/01/07 06:32:28;;;;;;;6.07;3.03;;;4.90;73.00;;;;;;2363245;53;21858;-73
2022/01/07 06:34:54;;;;;;;7.28;3.55;;;4.90;73.00;;;;;;2366952;54;21374;-73
2022/01/07 06:37:23;;;;;;;7.05;3.10;;;4.90;73.20;;;;;;2343196;53;21781;-73
2022/01/07 06:39:49;;;;;;;7.05;3.33;;;4.90;72.90;;;;;;2417480;52;21627;-74
2022/01/07 06:42:16;;;;;;;6.82;3.42;;;4.90;72.90;;;;;;2357015;53;21016;-73
2022/01/07 06:44:42;;;;;;;9.02;3.50;;;4.90;72.90;;;;;;2352594;53;21449;-73
2022/01/07 06:47:08;;;;;;;13.05;4.97;;;4.90;72.90;;;;;;2359904;53;20996;-73
2022/01/07 06:49:34;;;;;;;12.15;5.70;;;4.90;72.70;;;;;;2351286;53;21971;-73
2022/01/07 06:52:01;;;;;;;9.30;4.10;;;4.90;72.60;;;;;;2345463;53;20923;-73
2022/01/07 06:54:28;;;;;;;6.28;3.17;;;4.90;72.60;;;;;;2368968;53;21442;-74
2022/01/07 06:56:55;;;;;;;6.10;3.42;;;4.90;72.50;;;;;;2353972;53;21450;-74
2022/01/07 06:59:21;;;;;;;6.37;3.28;;;4.90;72.50;;;;;;2351836;53;22064;-74
2022/01/07 07:01:47;;;;;;;7.03;3.28;;;4.90;72.50;;;;;;2385739;53;20974;-74
2022/01/07 07:04:14;;;;;;;7.00;3.17;;;4.90;72.40;;;;;;2345449;53;20927;-74
2022/01/07 07:06:46;;;;;;;5.62;2.85;;;4.90;72.40;;;;;;2546178;52;20974;-74
2022/01/07 07:09:12;;;;;;;5.60;2.95;;;4.90;72.40;;;;;;2356626;53;20999;-73
2022/01/07 07:11:39;;;;;;;6.20;2.70;;;4.90;72.40;;;;;;2338547;53;21015;-73
2022/01/07 07:14:06;;;;;;;5.85;2.95;;;4.90;72.50;;;;;;2476475;52;20981;-73
2022/01/07 07:16:32;;;;;;;6.43;3.12;;;4.90;72.60;;;;;;2428048;53;20944;-74
2022/01/07 07:18:58;;;;;;;4.93;2.37;;;4.90;72.60;;;;;;2354370;53;20924;-73
2022/01/07 07:21:25;;;;;;;5.87;2.90;;;4.90;72.60;;;;;;2364626;54;20944;-74
2022/01/07 07:23:51;;;;;;;7.43;3.05;;;4.90;72.70;;;;;;2367801;52;20939;-73
2022/01/07 07:26:18;;;;;;;5.72;2.60;;;4.90;72.80;;;;;;2365280;54;20971;-74
2022/01/07 07:28:46;;;;;;;5.10;2.65;;;4.90;72.90;;;;;;2368081;52;20955;-74
2022/01/07 07:31:15;;;;;;;8.07;3.33;;;4.90;73.00;;;;;;2358928;53;20923;-74
2022/01/07 07:36:26;;;;;;;5.95;2.83;;;5.00;73.00;;;;;;2349983;53;21426;-73
2022/01/07 07:42:32;;;;;;;9.70;2.87;;;5.00;72.40;;;;;;2355590;53;20987;-74
2022/01/07 07:44:59;;;;;;;4.65;2.78;;;5.00;73.00;;;;;;2357794;53;21013;-73
2022/01/07 07:47:27;;;;;;;5.75;3.00;;;5.00;73.10;;;;;;2345221;54;21043;-74
2022/01/07 07:49:53;;;;;;;5.82;3.12;;;5.00;73.10;;;;;;2363221;53;20959;-74
2022/01/07 07:52:20;;;;;;;8.75;3.55;;;5.10;73.10;;;;;;2350119;53;20933;-73
2022/01/07 07:54:46;;;;;;;7.32;3.42;;;5.10;72.80;;;;;;2590465;52;21421;-74
2022/01/07 07:57:13;;;;;;;7.70;4.18;;;5.10;73.10;;;;;;2366365;52;20997;-73
2022/01/07 07:59:40;;;;;;;7.72;3.70;;;5.10;73.10;;;;;;2346424;52;20967;-73
2022/01/07 08:02:10;;;;;;;7.72;3.42;;;5.10;73.30;;;;;;2349637;53;20951;-74
2022/01/07 08:04:39;;;;;;;7.75;2.87;;;5.20;73.30;;;;;;2394939;53;20994;-74
2022/01/07 08:07:06;;;;;;;7.22;3.58;;;5.20;73.10;;;;;;2351205;53;20931;-74
2022/01/07 08:09:37;;;;;;;7.75;4.15;;;5.20;73.10;;;;;;2448029;53;21460;-74
2022/01/07 08:12:17;;;;;;;8.70;4.30;;;5.20;73.10;;;;;;2396791;53;20937;-73
2022/01/07 08:17:28;;;;;;;12.90;6.90;;;5.30;73.10;;;;;;2356849;53;20912;-73
2022/01/07 08:19:56;;;;;;;9.82;5.05;;;5.30;73.30;;;;;;2430942;53;20931;-74
2022/01/07 08:22:22;;;;;;;9.23;4.15;;;5.30;73.40;;;;;;2357653;53;21062;-74
2022/01/07 08:24:48;;;;;;;8.07;4.47;;;5.40;73.30;;;;;;2422495;52;21439;-74
2022/01/07 08:27:14;;;;;;;9.85;4.75;;;5.40;73.50;;;;;;2350938;53;20985;-74
2022/01/07 08:29:57;;;;;;;9.00;5.75;;;5.40;73.60;;;;;;2346876;53;20979;-73
2022/01/07 08:35:08;;;;;;;10.13;5.57;;;5.50;73.60;;;;;;2347883;53;20931;-74
2022/01/07 08:37:34;;;;;;;8.63;5.22;;;5.50;73.50;;;;;;2344366;53;21400;-74
2022/01/07 08:40:01;;;;;;;11.02;5.72;;;5.50;73.30;;;;;;2442968;53;20907;-74
2022/01/07 08:42:27;;;;;;;10.35;5.93;;;5.60;73.50;;;;;;2341646;54;20907;-74
2022/01/07 08:44:54;;;;;;;10.00;5.30;;;5.60;73.50;;;;;;2407844;53;21027;-74
2022/01/07 08:47:22;;;;;;;11.63;5.10;;;5.60;73.30;;;;;;2417523;53;21641;-74
2022/01/07 08:49:48;;;;;;;6.87;4.12;;;5.60;73.20;;;;;;2339008;53;20978;-74
2022/01/07 08:52:14;;;;;;;7.05;4.50;;;5.60;73.30;;;;;;2346827;53;20965;-74
2022/01/07 08:54:41;;;;;;;7.43;4.28;;;5.60;73.40;;;;;;2429230;53;21248;-74
2022/01/07 08:57:07;;;;;;;7.82;5.35;;;5.60;73.20;;;;;;2343406;54;21520;-74
2022/01/07 08:59:33;;;;;;;8.30;4.70;;;5.60;73.10;;;;;;2346333;54;21059;-73
2022/01/07 09:02:00;;;;;;;7.45;4.22;;;5.70;73.40;;;;;;2335387;54;21074;-73
2022/01/07 09:04:26;;;;;;;6.07;3.53;;;5.70;73.20;;;;;;2334363;53;21089;-73
2022/01/07 09:06:52;;;;;;;8.68;4.07;;;5.70;73.00;;;;;;2338748;53;20921;-73
2022/01/07 09:09:19;;;;;;;6.60;3.78;;;5.70;73.10;;;;;;2357465;53;21027;-73
2022/01/07 09:11:46;;;;;;;6.30;3.78;;;5.80;73.30;;;;;;2358328;53;20983;-73
2022/01/07 09:14:12;;;;;;;8.57;3.83;;;5.80;73.30;;;;;;2325284;54;21424;-74
2022/01/07 09:16:41;;;;;;;7.35;3.37;;;5.80;73.40;;;;;;2314853;54;21005;-74
2022/01/07 09:19:08;;;;;;;10.70;3.90;;;5.80;73.20;;;;;;2387488;53;20984;-73
2022/01/07 09:21:34;;;;;;;7.95;3.58;;;5.80;73.30;;;;;;2363551;53;21014;-73
2022/01/07 09:24:00;;;;;;;6.85;3.33;;;5.90;73.20;;;;;;2373464;52;20976;-74
2022/01/07 09:26:27;;;;;;;7.55;3.85;;;6.00;73.50;;;;;;2360413;53;21945;-74
2022/01/07 09:28:54;;;;;;;6.87;4.03;;;5.90;73.10;;;;;;2448974;52;21630;-73
2022/01/07 09:31:20;;;;;;;8.38;4.10;;;6.00;73.00;;;;;;2359296;53;21015;-73
2022/01/07 09:33:47;;;;;;;8.45;3.75;;;6.00;73.20;;;;;;2363443;53;20950;-73
2022/01/07 09:36:32;;;;;;;7.03;3.55;;;6.00;73.20;;;;;;2425360;53;20971;-73
2022/01/07 09:38:59;;;;;;;6.87;3.80;;;6.00;73.20;;;;;;2373562;53;21054;-74
2022/01/07 09:41:44;;;;;;;7.07;3.35;;;6.00;73.20;;;;;;2467187;53;20923;-73
2022/01/07 09:44:12;;;;;;;5.53;2.70;;;6.00;72.50;;;;;;2382453;53;21746;-74
2022/01/07 09:46:39;;;;;;;9.95;4.12;;;6.10;73.10;;;;;;2358364;53;20980;-74
2022/01/07 09:49:06;;;;;;;6.30;3.08;;;6.10;73.10;;;;;;2358190;53;21000;-73
2022/01/07 09:51:32;;;;;;;6.35;3.10;;;6.10;73.20;;;;;;2364686;54;20978;-73
2022/01/07 09:54:03;;;;;;;7.80;3.05;;;6.10;73.00;;;;;;2356419;53;21007;-73
2022/01/07 09:56:31;;;;;;;6.00;3.00;;;6.10;73.10;;;;;;2361315;53;21352;-74
2022/01/07 09:58:57;;;;;;;6.95;3.08;;;6.20;73.50;;;;;;2442372;52;20965;-74
2022/01/07 10:01:27;;;;;;;5.90;2.95;;;6.10;72.90;;;;;;2375882;53;20950;-73
2022/01/07 10:03:57;;;;;;;8.80;3.40;;;6.20;72.60;;;;;;2362189;53;20943;-74
2022/01/07 10:06:25;;;;;;;7.25;3.10;;;6.20;72.20;;;;;;2344262;53;21015;-74
2022/01/07 10:10:05;;;;;;;7.60;2.87;;;6.20;72.10;;;;;;2350402;53;21007;-74
2022/01/07 10:12:50;;;;;;;7.32;3.20;;;6.10;71.10;;;;;;2385623;53;21066;-74
2022/01/07 10:15:24;;;;;;;6.72;3.08;;;6.10;72.10;;;;;;2356632;53;20916;-74
2022/01/07 10:18:00;;;;;;;9.02;3.80;;;6.10;72.10;;;;;;2338896;53;21438;-74
2022/01/07 10:20:30;;;;;;;7.07;3.70;;;6.10;72.30;;;;;;2433024;52;21004;-74
2022/01/07 10:23:03;;;;;;;7.87;3.53;;;6.10;72.30;;;;;;2341878;53;20927;-74
2022/01/07 10:25:31;;;;;;;9.05;3.65;;;6.10;72.40;;;;;;2348918;53;20940;-73
2022/01/07 10:28:05;;;;;;;8.75;4.28;;;6.10;72.60;;;;;;2358493;53;20995;-74
2022/01/07 10:30:48;;;;;;;7.72;3.22;;;6.10;72.10;;;;;;2356217;53;21295;-74
2022/01/07 10:33:25;;;;;;;7.68;2.85;;;6.10;72.50;;;;;;2356970;53;21022;-74
2022/01/07 10:35:53;;;;;;;8.77;3.50;;;6.10;72.70;;;;;;2381618;52;21017;-74
2022/01/07 10:38:27;;;;;;;5.30;3.30;;;6.20;73.30;;;;;;2385828;52;20948;-73
2022/01/07 10:40:56;;;;;;;10.25;3.50;;;6.20;73.00;;;;;;2357253;53;21058;-73
2022/01/07 10:43:24;;;;;;;6.97;3.35;;;6.20;73.20;;;;;;2514719;52;20983;-73
2022/01/07 10:45:54;;;;;;;7.22;3.30;;;6.20;72.40;;;;;;2355452;52;20956;-73
2022/01/07 10:48:23;;;;;;;6.12;3.25;;;6.20;72.30;;;;;;2358470;53;20944;-74
2022/01/07 10:50:51;;;;;;;8.13;3.20;;;6.20;72.30;;;;;;2553561;52;21011;-73
2022/01/07 10:53:30;;;;;;;7.47;3.40;;;6.20;72.40;;;;;;2367703;53;20949;-74
2022/01/07 10:56:08;;;;;;;5.45;2.65;;;6.20;72.30;;;;;;2354911;53;20992;-74
2022/01/07 10:58:52;;;;;;;5.28;2.78;;;6.20;72.70;;;;;;2354919;53;20970;-74
2022/01/07 11:01:44;;;;;;;7.95;3.25;;;6.30;72.60;;;;;;2364790;53;20959;-75
2022/01/07 11:04:17;;;;;;;6.30;3.03;;;6.30;72.40;;;;;;2354295;52;21326;-73
2022/01/07 11:06:44;;;;;;;7.28;3.47;;;6.30;72.90;;;;;;2368822;52;21493;-74
2022/01/07 11:09:12;;;;;;;7.82;3.30;;;6.30;72.60;;;;;;2346490;53;20940;-74
2022/01/07 11:12:01;;;;;;;8.90;2.95;;;6.30;72.60;;;;;;2376328;53;20932;-74
2022/01/07 11:14:37;;;;;;;6.70;2.80;;;6.30;72.70;;;;;;2351634;53;20931;-70
2022/01/07 11:17:08;;;;;;;5.30;2.53;;;6.30;72.40;;;;;;2403743;52;20972;-74
2022/01/07 11:19:39;;;;;;;5.22;2.33;;;6.40;72.80;;;;;;2368754;52;21090;-73
2022/01/07 11:22:07;;;;;;;5.32;2.00;;;6.40;72.90;;;;;;2352725;52;21051;-73
2022/01/07 11:24:39;;;;;;;7.97;2.20;;;6.40;73.00;;;;;;2377994;53;21023;-74
2022/01/07 11:27:12;;;;;;;5.68;2.55;;;6.40;72.90;;;;;;2340896;53;21462;-75
2022/01/07 11:29:38;;;;;;;;;;;6.40;73.10;;;;;;2345532;53;21885;-74
2022/01/07 11:32:28;;;;;;;7.43;2.40;;;6.40;71.90;;;;;;2347844;53;20057;-73
2022/01/07 11:34:55;;;;;;;7.20;2.50;;;6.50;72.80;;;;;;2345467;52;20999;-74
2022/01/07 11:37:37;;;;;;;8.70;3.35;;;6.50;73.10;;;;;;2380695;53;21039;-75
2022/01/07 11:40:05;;;;;;;7.68;3.08;;;6.50;72.60;;;;;;2313054;53;21004;-74
2022/01/07 11:42:41;;;;;;;6.07;2.35;;;6.50;73.00;;;;;;2393701;52;21023;-74
2022/01/07 11:45:38;;;;;;;7.05;2.70;;;6.50;72.70;;;;;;2300891;53;21951;-75
2022/01/07 11:48:15;;;;;;;6.47;2.45;;;6.60;72.00;;;;;;2341301;54;20974;-75
2022/01/07 11:51:34;;;;;;;5.10;2.33;;;6.60;72.60;;;;;;2332445;53;21008;-77
2022/01/07 11:54:03;;;;;;;7.82;2.62;;;6.60;72.40;;;;;;2351077;53;20906;-74
2022/01/07 11:56:29;;;;;;;5.70;2.53;;;6.60;72.80;;;;;;2363934;53;21970;-74
2022/01/07 11:58:59;;;;;;;5.78;2.35;;;6.60;72.70;;;;;;2354413;52;20959;-75
2022/01/07 12:01:35;;;;;;;4.53;2.28;;;6.70;72.80;;;;;;2346647;53;20931;-73
2022/01/07 12:04:27;;;;;;;6.43;2.65;;;6.70;72.50;;;;;;2346602;53;20923;-70
2022/01/07 12:06:55;;;;;;;7.22;2.45;;;6.60;72.40;;;;;;2359502;53;20999;-73
2022/01/07 12:09:30;;;;;;;4.82;2.25;;;6.60;72.40;;;;;;2353030;53;20998;-71
2022/01/07 12:13:00;;;;;;;9.88;2.87;;;6.70;72.20;;;;;;2368755;53;21033;-73
2022/01/07 12:15:31;;;;;;;8.98;3.58;;;6.70;71.60;;;;;;2345946;53;20911;-74
2022/01/07 12:18:08;;;;;;;7.70;2.75;;;6.60;71.80;;;;;;2362364;53;20931;-70
2022/01/07 12:20:52;;;;;;;8.82;3.47;;;6.60;71.00;;;;;;2415248;52;20927;-74
2022/01/07 12:23:20;;;;;;;5.50;2.90;;;6.60;71.00;;;;;;2369447;54;20999;-71
2022/01/07 12:25:52;;;;;;;5.03;2.78;;;6.60;71.70;;;;;;2344699;53;21468;-72
2022/01/07 12:28:18;;;;;;;9.13;3.22;;;6.60;71.50;;;;;;2363443;53;20985;-68
2022/01/07 12:30:47;;;;;;;7.78;3.50;;;6.60;72.10;;;;;;2361631;54;20988;-69
2022/01/07 12:33:13;;;;;;;5.05;2.70;;;6.60;72.10;;;;;;2341345;53;20935;-67
2022/01/07 12:35:43;;;;;;;7.43;3.00;;;6.60;73.20;;;;;;2386285;52;20952;-66
2022/01/07 12:38:14;;;;;;;6.57;3.22;;;6.60;72.10;;;;;;2358406;53;20956;-66
2022/01/07 12:40:40;;;;;;;7.18;2.78;;;6.60;72.50;;;;;;2352517;53;21831;-70
2022/01/07 12:43:06;;;;;;;7.60;2.90;;;6.60;72.40;;;;;;2350982;53;20963;-68
2022/01/07 12:45:32;;;;;;;6.22;3.03;;;6.60;72.10;;;;;;2354864;53;21009;-66
2022/01/07 12:48:01;;;;;;;7.28;2.70;;;6.60;72.10;;;;;;2358861;52;21839;-70
2022/01/07 12:50:29;;;;;;;5.05;2.75;;;6.60;72.30;;;;;;2356539;53;21494;-67
2022/01/07 12:52:55;;;;;;;7.05;3.17;;;6.60;72.30;;;;;;2349439;53;21041;-67
2022/01/07 12:55:23;;;;;;;4.75;2.45;;;6.60;72.10;;;;;;2355261;53;20955;-66
2022/01/07 12:57:58;;;;;;;6.55;2.58;;;6.60;72.20;;;;;;2343069;53;21789;-67
2022/01/07 13:00:26;;;;;;;5.90;2.80;;;6.60;71.50;;;;;;2316050;54;21453;-67
2022/01/07 13:02:55;;;;;;;6.97;2.70;;;6.60;71.30;;;;;;2346565;53;20973;-70
2022/01/07 13:05:28;;;;;;;6.90;2.67;;;6.60;71.80;;;;;;2328635;53;20949;-69
2022/01/07 13:07:59;;;;;;;3.95;2.42;;;6.60;71.50;;;;;;2427804;52;21858;-67
2022/01/07 13:10:27;;;;;;;6.57;2.67;;;6.60;71.90;;;;;;2323796;54;20955;-70
2022/01/07 13:13:10;;;;;;;6.47;2.78;;;6.60;72.40;;;;;;2342494;54;20946;-69
2022/01/07 13:15:59;;;;;;;6.68;2.78;;;6.60;72.30;;;;;;2341584;53;20927;-69